Terminal Aerodrome Forecast
Issued by NWS

Home | Current Version | Previous Version | Text Only | Print | Product List | Glossary Off
Versions: 1 2 3 4 5 6 7 8 9 10 11 12 13 14 15 16 17 18 19 20 21 22 23 24 25

896
FTUS43 KICT 211618 AAB
TAFRSL
TAF AMD
KRSL 211618Z 2116/2212 01008KT 1/4SM FG OVC002
     FM220000 35012KT 2SM BR OVC008
     FM220500 33016G24KT 1SM -SN BR OVC003
     FM220700 33020G28KT 1SM -SN BR BLSN OVC003=

USA.gov is the U.S. government's official web portal to all federal, state and local government web resources and services.